createdAt,value
2023-04-18T00:01:28.891Z,103008.88
2023-04-18T00:03:55.917Z,103005.50
2023-04-18T00:06:22.474Z,103012.03
2023-04-18T00:08:49.194Z,103007.09
2023-04-18T00:11:15.764Z,103008.16
2023-04-18T00:13:42.270Z,103014.53
2023-04-18T00:16:09.027Z,103011.84
2023-04-18T00:18:37.164Z,103005.19
2023-04-18T00:21:04.511Z,103015.88
2023-04-18T00:23:31.209Z,102995.88
2023-04-18T00:25:57.662Z,103002.84
2023-04-18T00:28:24.458Z,103015.59
2023-04-18T00:30:51.436Z,103007.16
2023-04-18T00:33:18.180Z,103013.19
2023-04-18T00:35:44.706Z,103007.69
2023-04-18T00:38:11.193Z,103010.41
2023-04-18T00:40:38.546Z,103001.97
2023-04-18T00:43:07.487Z,103005.56
2023-04-18T00:45:34.344Z,103001.25
2023-04-18T00:48:01.034Z,103004.34
2023-04-18T00:50:27.719Z,102999.91
2023-04-18T00:52:54.780Z,102997.59
2023-04-18T00:55:22.014Z,103001.63
2023-04-18T00:57:48.480Z,103008.31
2023-04-18T01:00:15.460Z,103001.69
2023-04-18T01:02:42.263Z,103003.28
2023-04-18T01:05:09.004Z,103001.91
2023-04-18T01:07:38.036Z,103012.06
2023-04-18T01:10:05.186Z,102998.34
2023-04-18T01:12:31.722Z,103008.28
2023-04-18T01:14:58.825Z,103007.44
2023-04-18T01:17:25.355Z,103004.06
2023-04-18T01:19:51.827Z,102994.78
2023-04-18T01:22:19.766Z,102991.50
2023-04-18T01:24:46.198Z,102999.44
2023-04-18T01:27:13.598Z,102994.59
2023-04-18T01:29:40.782Z,102997.84
2023-04-18T01:32:07.435Z,102985.09
2023-04-18T01:34:33.966Z,102990.28
2023-04-18T01:37:00.612Z,102985.31
2023-04-18T01:39:27.260Z,102990.38
2023-04-18T01:41:53.802Z,102983.00
2023-04-18T01:44:20.443Z,102985.41
2023-04-18T01:46:46.921Z,102991.66
2023-04-18T01:49:13.473Z,102980.88
2023-04-18T01:51:39.973Z,102990.69
2023-04-18T01:54:06.529Z,102981.31
2023-04-18T01:56:33.129Z,102990.06
2023-04-18T01:58:59.607Z,102992.06
2023-04-18T02:01:26.149Z,102976.66
2023-04-18T02:03:52.927Z,102988.16
2023-04-18T02:06:19.608Z,102986.34
2023-04-18T02:08:46.166Z,102969.47
2023-04-18T02:11:12.727Z,102979.81
2023-04-18T02:13:39.271Z,102980.34
2023-04-18T02:16:06.263Z,102980.56
2023-04-18T02:18:34.649Z,102978.88
2023-04-18T02:21:01.159Z,102995.63
2023-04-18T02:23:27.680Z,102978.22
2023-04-18T02:25:54.577Z,102993.94
2023-04-18T02:28:21.170Z,102987.06
2023-04-18T02:30:47.673Z,102988.97
2023-04-18T02:33:14.115Z,102980.44
2023-04-18T02:35:40.739Z,102981.47
2023-04-18T02:38:07.300Z,102992.69
2023-04-18T02:40:33.825Z,102976.56
2023-04-18T02:43:00.393Z,102993.09
2023-04-18T02:45:26.907Z,102989.88
2023-04-18T02:47:56.224Z,102984.16
2023-04-18T02:50:23.572Z,102985.22
2023-04-18T02:52:50.107Z,102985.09
2023-04-18T02:55:16.734Z,102995.97
2023-04-18T02:57:43.299Z,102986.66
2023-04-18T03:00:10.434Z,102988.47
2023-04-18T03:02:37.078Z,102982.66
2023-04-18T03:05:04.199Z,102995.09
2023-04-18T03:07:31.201Z,102985.69
2023-04-18T03:09:58.081Z,102981.66
2023-04-18T03:12:24.730Z,102984.19
2023-04-18T03:14:51.451Z,102983.47
2023-04-18T03:17:18.430Z,102973.94
2023-04-18T03:19:46.300Z,102981.66
2023-04-18T03:22:14.051Z,102978.19
2023-04-18T03:24:40.722Z,102980.09
2023-04-18T03:27:07.356Z,102983.47
2023-04-18T03:29:34.005Z,102976.91
2023-04-18T03:32:00.438Z,102983.13
2023-04-18T03:34:27.666Z,102982.78
2023-04-18T03:36:54.336Z,102989.72
2023-04-18T03:39:21.064Z,103000.47
2023-04-18T03:41:47.633Z,103000.66
2023-04-18T03:44:14.722Z,102995.47
2023-04-18T03:46:42.051Z,102990.91
2023-04-18T03:49:08.930Z,102996.19
2023-04-18T03:51:45.304Z,102999.75
2023-04-18T03:54:11.975Z,102988.78
2023-04-18T03:56:38.678Z,102999.41
2023-04-18T03:59:05.234Z,102989.25
2023-04-18T04:01:32.069Z,102998.56
2023-04-18T04:03:58.811Z,102999.41
2023-04-18T04:06:26.270Z,102992.44
2023-04-18T04:08:52.780Z,102990.47
2023-04-18T04:11:19.354Z,102986.03
2023-04-18T04:13:45.880Z,102998.94
2023-04-18T04:16:12.633Z,102980.38
2023-04-18T04:18:39.265Z,102990.72
2023-04-18T04:21:06.711Z,102988.63
2023-04-18T04:23:34.200Z,102991.63
2023-04-18T04:26:04.659Z,102998.38
2023-04-18T04:28:31.961Z,102998.38
2023-04-18T04:30:59.299Z,102986.91
2023-04-18T04:33:28.421Z,102990.28
2023-04-18T04:35:55.533Z,102990.16
2023-04-18T04:38:25.259Z,102998.59
2023-04-18T04:40:52.860Z,102993.44
2023-04-18T04:43:20.565Z,103004.34
2023-04-18T04:45:52.619Z,102994.81
2023-04-18T04:48:20.333Z,103004.13
2023-04-18T04:50:55.629Z,103003.00
2023-04-18T04:53:23.253Z,103003.06
2023-04-18T04:55:51.693Z,103013.34
2023-04-18T04:58:18.519Z,103013.41
2023-04-18T05:00:44.988Z,103009.84
2023-04-18T05:03:11.728Z,103021.13
2023-04-18T05:05:38.422Z,103019.03
2023-04-18T05:08:05.333Z,103023.28
2023-04-18T05:10:32.500Z,103021.47
2023-04-18T05:12:58.997Z,103020.44
2023-04-18T05:15:25.665Z,103012.81
2023-04-18T05:17:52.171Z,103019.56
2023-04-18T05:20:18.735Z,103023.06
2023-04-18T05:22:45.346Z,103022.13
2023-04-18T05:25:12.582Z,103020.22
2023-04-18T05:27:39.428Z,103024.25
2023-04-18T05:30:06.800Z,103028.47
2023-04-18T05:32:33.407Z,103027.25
2023-04-18T05:34:59.980Z,103027.44
2023-04-18T05:37:26.461Z,103021.34
2023-04-18T05:39:52.937Z,103028.09
2023-04-18T05:42:19.431Z,103038.66
2023-04-18T05:44:45.882Z,103037.19
2023-04-18T05:47:12.331Z,103041.22
2023-04-18T05:49:38.897Z,103047.84
2023-04-18T05:52:05.658Z,103037.88
2023-04-18T05:54:32.166Z,103045.13
2023-04-18T05:56:58.598Z,103041.88
2023-04-18T05:59:26.806Z,103038.09
2023-04-18T06:01:53.520Z,103042.28
2023-04-18T06:04:20.830Z,103040.38
2023-04-18T06:06:47.686Z,103040.19
2023-04-18T06:09:14.186Z,103044.41
2023-04-18T06:11:40.695Z,103035.44
2023-04-18T06:14:07.902Z,103045.91
2023-04-18T06:16:37.272Z,103052.34
2023-04-18T06:19:05.322Z,103048.63
2023-04-18T06:21:32.217Z,103050.75
2023-04-18T06:23:59.068Z,103060.03
2023-04-18T06:26:25.574Z,103057.09
2023-04-18T06:28:52.213Z,103059.19
2023-04-18T06:31:18.766Z,103047.97
2023-04-18T06:33:45.267Z,103059.72
2023-04-18T06:36:11.843Z,103048.50
2023-04-18T06:38:38.448Z,103053.44
2023-04-18T06:41:05.069Z,103049.84
2023-04-18T06:43:31.619Z,103053.28
2023-04-18T06:45:58.994Z,103060.78
2023-04-18T06:48:25.635Z,103057.81
2023-04-18T06:50:52.087Z,103054.31
2023-04-18T06:53:18.537Z,103050.69
2023-04-18T06:55:45.114Z,103066.22
2023-04-18T06:58:13.778Z,103063.56
2023-04-18T07:00:40.531Z,103060.94
2023-04-18T07:03:11.437Z,103059.75
2023-04-18T07:05:40.965Z,103067.38
2023-04-18T07:08:08.142Z,103064.16
2023-04-18T07:10:34.647Z,103063.69
2023-04-18T07:13:01.184Z,103059.50
2023-04-18T07:15:27.752Z,103073.53
2023-04-18T07:17:54.387Z,103068.66
2023-04-18T07:20:20.922Z,103067.44
2023-04-18T07:22:48.129Z,103054.44
2023-04-18T07:25:14.776Z,103070.94
2023-04-18T07:27:41.293Z,103066.41
2023-04-18T07:30:08.478Z,103071.97
2023-04-18T07:32:35.055Z,103077.41
2023-04-18T07:35:01.563Z,103066.34
2023-04-18T07:37:28.078Z,103067.59
2023-04-18T07:39:54.563Z,103069.19
2023-04-18T07:42:22.192Z,103056.91
2023-04-18T07:44:49.533Z,103063.91
2023-04-18T07:47:16.110Z,103066.16
2023-04-18T07:49:42.558Z,103064.75
2023-04-18T07:52:09.069Z,103050.53
2023-04-18T07:54:35.603Z,103059.81
2023-04-18T07:57:02.161Z,103064.53
2023-04-18T07:59:29.523Z,103057.41
2023-04-18T08:01:56.126Z,103060.91
2023-04-18T08:04:22.906Z,103074.41
2023-04-18T08:06:49.637Z,103059.47
2023-04-18T08:09:16.479Z,103057.75
2023-04-18T08:11:43.212Z,103055.06
2023-04-18T08:14:09.742Z,103054.09
2023-04-18T08:16:36.712Z,103056.25
2023-04-18T08:19:03.984Z,103063.44
2023-04-18T08:21:31.493Z,103059.06
2023-04-18T08:23:58.114Z,103057.63
2023-04-18T08:26:24.660Z,103059.03
2023-04-18T08:28:51.679Z,103055.88
2023-04-18T08:31:18.252Z,103070.84
2023-04-18T08:33:44.737Z,103071.75
2023-04-18T08:36:12.191Z,103068.72
2023-04-18T08:38:38.744Z,103064.25
2023-04-18T08:41:05.316Z,103072.22
2023-04-18T08:43:31.980Z,103058.41
2023-04-18T08:46:00.039Z,103068.69
2023-04-18T08:48:29.628Z,103068.00
2023-04-18T08:50:59.562Z,103069.06
2023-04-18T08:53:27.124Z,103061.47
2023-04-18T08:55:56.249Z,103058.97
2023-04-18T08:58:23.676Z,103071.53
2023-04-18T09:00:52.079Z,103069.16
2023-04-18T09:03:37.470Z,103063.44
2023-04-18T09:06:22.530Z,103065.94
2023-04-18T09:09:00.221Z,103063.78
2023-04-18T09:11:31.834Z,103058.88
2023-04-18T09:13:59.121Z,103073.00
2023-04-18T09:16:27.736Z,103070.66
2023-04-18T09:19:12.339Z,103056.22
2023-04-18T09:21:41.224Z,103065.59
2023-04-18T09:24:21.269Z,103056.72
2023-04-18T09:26:49.787Z,103058.63
2023-04-18T09:29:18.485Z,103041.97
2023-04-18T09:31:57.505Z,103057.88
2023-04-18T09:34:27.616Z,103071.88
2023-04-18T09:37:07.803Z,103059.16
2023-04-18T09:39:34.455Z,103069.72
2023-04-18T09:42:01.478Z,103065.06
2023-04-18T09:44:28.232Z,103054.16
2023-04-18T09:46:54.745Z,103057.78
2023-04-18T09:49:21.326Z,103067.44
2023-04-18T09:51:56.053Z,103043.78
2023-04-18T09:54:24.384Z,103046.75
2023-04-18T09:56:53.473Z,103054.81
2023-04-18T09:59:47.755Z,103048.66
2023-04-18T10:02:27.528Z,103036.63
2023-04-18T10:04:54.379Z,103040.88
2023-04-18T10:07:21.296Z,103040.88
2023-04-18T10:09:49.385Z,103044.88
2023-04-18T10:14:44.474Z,103034.94
2023-04-18T10:17:11.908Z,103047.25
2023-04-18T10:19:42.151Z,103047.00
2023-04-18T10:22:08.821Z,103057.34
2023-04-18T10:24:56.276Z,103044.31
2023-04-18T10:27:47.896Z,103034.78
2023-04-18T10:30:15.745Z,103036.78
2023-04-18T10:32:42.647Z,103027.72
2023-04-18T10:35:10.891Z,103052.38
2023-04-18T10:37:59.395Z,103045.47
2023-04-18T10:40:36.719Z,103044.91
2023-04-18T10:43:03.229Z,103052.63
2023-04-18T10:45:32.640Z,103035.66
2023-04-18T10:48:31.211Z,103026.19
2023-04-18T10:51:18.333Z,103018.50
2023-04-18T10:53:57.623Z,103017.28
2023-04-18T10:56:26.091Z,102999.63
2023-04-18T10:58:53.414Z,103001.03
2023-04-18T11:01:31.769Z,103001.19
2023-04-18T11:04:00.030Z,102994.00
2023-04-18T11:06:27.779Z,103008.84
2023-04-18T11:09:11.774Z,103012.94
2023-04-18T11:11:38.353Z,103015.81
2023-04-18T11:14:05.302Z,103006.44
2023-04-18T11:16:34.327Z,103008.16
2023-04-18T11:19:00.997Z,103002.56
2023-04-18T11:21:30.614Z,103011.53
2023-04-18T11:23:57.942Z,103013.47
2023-04-18T11:26:25.948Z,103005.22
2023-04-18T11:28:59.029Z,103001.03
2023-04-18T11:31:25.897Z,102995.25
2023-04-18T11:33:52.805Z,103003.25
2023-04-18T11:36:19.412Z,102994.44
2023-04-18T11:38:46.432Z,102995.44
2023-04-18T11:41:16.578Z,103000.59
2023-04-18T11:43:44.923Z,102987.03
2023-04-18T11:46:13.380Z,102994.56
2023-04-18T11:48:45.432Z,102999.78
2023-04-18T11:51:32.315Z,103016.72
2023-04-18T11:53:58.782Z,103001.56
2023-04-18T11:56:25.397Z,103004.00
2023-04-18T11:58:52.048Z,103001.19
2023-04-18T12:01:19.712Z,102994.06
2023-04-18T12:04:08.170Z,103004.69
2023-04-18T12:06:52.266Z,103005.94
2023-04-18T12:09:21.217Z,102998.50
2023-04-18T12:11:59.314Z,102990.38
2023-04-18T12:14:25.839Z,102996.41
2023-04-18T12:16:52.446Z,102997.22
2023-04-18T12:19:20.765Z,103001.16
2023-04-18T12:22:01.164Z,103007.88
2023-04-18T12:24:32.368Z,103003.66
2023-04-18T12:26:59.284Z,103000.13
2023-04-18T12:29:27.321Z,102995.50
2023-04-18T12:31:54.068Z,102992.25
2023-04-18T12:34:21.054Z,102996.72
2023-04-18T12:36:47.571Z,102988.72
2023-04-18T12:39:14.028Z,102977.78
2023-04-18T12:41:40.648Z,103003.97
2023-04-18T12:44:07.383Z,102980.72
2023-04-18T12:46:33.970Z,102978.75
2023-04-18T12:49:00.602Z,102976.03
2023-04-18T12:51:27.929Z,102974.53
2023-04-18T12:53:54.479Z,102979.56
2023-04-18T12:56:21.549Z,102974.72
2023-04-18T12:58:48.018Z,102977.94
2023-04-18T13:01:14.708Z,102985.81
2023-04-18T13:03:42.128Z,102981.47
2023-04-18T13:06:09.234Z,102977.81
2023-04-18T13:08:37.575Z,102975.97
2023-04-18T13:11:04.252Z,102980.50
2023-04-18T13:13:30.816Z,102987.78
2023-04-18T13:15:57.308Z,102969.31
2023-04-18T13:18:24.032Z,102987.25
2023-04-18T13:20:50.581Z,102987.56
2023-04-18T13:23:17.096Z,102986.41
2023-04-18T13:25:43.637Z,102987.50
2023-04-18T13:28:10.277Z,102987.63
2023-04-18T13:30:36.722Z,102981.03
2023-04-18T13:33:03.389Z,102972.59
2023-04-18T13:35:30.204Z,102978.88
2023-04-18T13:37:56.700Z,102966.34
2023-04-18T13:40:23.238Z,102965.47
2023-04-18T13:42:49.766Z,102975.00
2023-04-18T13:45:16.274Z,102955.47
2023-04-18T13:47:42.777Z,102961.50
2023-04-18T13:50:09.802Z,102966.78
2023-04-18T13:52:36.520Z,102970.91
2023-04-18T13:55:03.828Z,102962.91
2023-04-18T13:57:32.361Z,102949.91
2023-04-18T13:59:59.088Z,102963.69
2023-04-18T14:02:25.833Z,102965.91
2023-04-18T14:04:54.244Z,102954.13
2023-04-18T14:07:20.810Z,102966.06
2023-04-18T14:09:48.235Z,102948.34
2023-04-18T14:12:14.882Z,102962.16
2023-04-18T14:14:41.998Z,102956.75
2023-04-18T14:17:08.569Z,102964.16
2023-04-18T14:19:35.066Z,102963.09
2023-04-18T14:22:01.520Z,102965.44
2023-04-18T14:24:28.092Z,102957.75
2023-04-18T14:26:54.831Z,102957.06
2023-04-18T14:29:21.391Z,102949.56
2023-04-18T14:31:48.333Z,102945.16
2023-04-18T14:34:15.025Z,102945.69
2023-04-18T14:36:41.500Z,102952.03
2023-04-18T14:39:08.392Z,102946.91
2023-04-18T14:41:34.907Z,102948.56
2023-04-18T14:44:01.823Z,102938.28
2023-04-18T14:46:29.185Z,102947.69
2023-04-18T14:48:55.694Z,102938.22
2023-04-18T14:51:23.638Z,102943.69
2023-04-18T14:53:50.192Z,102925.63
2023-04-18T14:56:20.829Z,102933.63
2023-04-18T14:58:47.570Z,102927.25
2023-04-18T15:01:14.151Z,102923.47
2023-04-18T15:03:40.988Z,102928.31
2023-04-18T15:06:07.791Z,102935.25
2023-04-18T15:08:34.457Z,102918.63
2023-04-18T15:11:01.402Z,102921.81
2023-04-18T15:13:27.980Z,102925.63
2023-04-18T15:15:56.439Z,102926.78
2023-04-18T15:18:23.041Z,102921.59
2023-04-18T15:20:50.210Z,102926.47
2023-04-18T15:23:16.823Z,102930.38
2023-04-18T15:25:44.523Z,102911.00
2023-04-18T15:28:13.378Z,102918.69
2023-04-18T15:30:40.219Z,102921.97
2023-04-18T15:33:07.044Z,102920.75
2023-04-18T15:35:33.559Z,102913.59
2023-04-18T15:38:00.241Z,102914.97
2023-04-18T15:40:26.906Z,102912.59
2023-04-18T15:42:54.417Z,102905.28
2023-04-18T15:45:21.360Z,102897.94
2023-04-18T15:47:48.116Z,102909.81
2023-04-18T15:50:16.219Z,102902.66
2023-04-18T15:52:43.989Z,102901.69
2023-04-18T15:55:12.418Z,102899.06
2023-04-18T15:57:39.495Z,102899.88
2023-04-18T16:00:11.729Z,102893.03
2023-04-18T16:02:38.275Z,102908.91
2023-04-18T16:05:05.117Z,102899.75
2023-04-18T16:07:31.655Z,102898.59
2023-04-18T16:09:58.119Z,102899.81
2023-04-18T16:12:24.650Z,102909.50
2023-04-18T16:14:51.364Z,102909.75
2023-04-18T16:17:18.148Z,102899.81
2023-04-18T16:19:44.671Z,102903.38
2023-04-18T16:22:12.161Z,102891.91
2023-04-18T16:24:41.542Z,102885.88
2023-04-18T16:27:09.051Z,102890.69
2023-04-18T16:29:35.702Z,102892.47
2023-04-18T16:32:02.278Z,102896.78
2023-04-18T16:34:28.738Z,102899.69
2023-04-18T16:36:55.751Z,102891.06
2023-04-18T16:39:22.440Z,102897.88
2023-04-18T16:41:49.437Z,102899.88
2023-04-18T16:44:16.175Z,102904.72
2023-04-18T16:46:42.906Z,102904.72
2023-04-18T16:49:09.517Z,102897.03
2023-04-18T16:51:37.296Z,102899.56
2023-04-18T16:54:04.890Z,102894.91
2023-04-18T16:56:31.631Z,102881.00
2023-04-18T16:58:58.659Z,102892.91
2023-04-18T17:01:29.378Z,102884.06
2023-04-18T17:03:56.314Z,102894.13
2023-04-18T17:06:24.948Z,102884.59
2023-04-18T17:08:53.483Z,102881.75
2023-04-18T17:11:20.854Z,102891.75
2023-04-18T17:13:47.448Z,102881.88
2023-04-18T17:16:13.964Z,102894.72
2023-04-18T17:18:41.693Z,102890.19
2023-04-18T17:21:12.221Z,102887.44
2023-04-18T17:23:41.622Z,102883.53
2023-04-18T17:26:11.552Z,102896.19
2023-04-18T17:28:38.076Z,102890.03
2023-04-18T17:31:05.040Z,102890.78
2023-04-18T17:33:31.775Z,102902.13
2023-04-18T17:35:58.593Z,102898.66
2023-04-18T17:38:25.307Z,102904.38
2023-04-18T17:41:02.456Z,102889.66
2023-04-18T17:43:29.056Z,102898.66
2023-04-18T17:45:56.812Z,102902.44
2023-04-18T17:48:23.288Z,102887.22
2023-04-18T17:50:49.772Z,102911.59
2023-04-18T17:53:17.437Z,102909.06
2023-04-18T17:55:44.018Z,102897.19
2023-04-18T17:58:10.520Z,102901.84
2023-04-18T18:00:37.084Z,102899.63
2023-04-18T18:03:03.967Z,102901.47
2023-04-18T18:05:31.133Z,102909.59
2023-04-18T18:07:59.892Z,102891.66
2023-04-18T18:10:26.995Z,102899.09
2023-04-18T18:12:53.538Z,102906.28
2023-04-18T18:15:20.272Z,102904.75
2023-04-18T18:17:48.959Z,102904.53
2023-04-18T18:21:00.378Z,102907.09
2023-04-18T18:23:29.166Z,102902.34
2023-04-18T18:25:55.800Z,102910.81
2023-04-18T18:28:22.421Z,102912.63
2023-04-18T18:30:49.174Z,102903.25
2023-04-18T18:33:16.989Z,102914.50
2023-04-18T18:35:43.598Z,102914.09
2023-04-18T18:38:19.725Z,102911.31
2023-04-18T18:40:46.384Z,102911.78
2023-04-18T18:43:13.464Z,102918.09
2023-04-18T18:45:55.236Z,102917.28
2023-04-18T18:48:27.386Z,102921.38
2023-04-18T18:50:59.551Z,102931.63
2023-04-18T18:53:26.439Z,102924.78
2023-04-18T18:56:17.276Z,102935.72
2023-04-18T18:59:18.757Z,102939.22
2023-04-18T19:02:09.421Z,102928.19
2023-04-18T19:04:38.867Z,102940.25
2023-04-18T19:07:07.048Z,102941.50
2023-04-18T19:09:33.735Z,102950.19
2023-04-18T19:12:01.020Z,102955.50
2023-04-18T19:14:27.539Z,102954.22
2023-04-18T19:16:55.829Z,102958.44
2023-04-18T19:19:22.332Z,102954.81
2023-04-18T19:21:49.195Z,102963.44
2023-04-18T19:24:15.911Z,102972.28
2023-04-18T19:26:42.446Z,102971.63
2023-04-18T19:29:10.732Z,102972.16
2023-04-18T19:31:37.382Z,102965.03
2023-04-18T19:34:04.121Z,102976.38
2023-04-18T19:36:31.878Z,102968.78
2023-04-18T19:38:58.582Z,102974.69
2023-04-18T19:41:26.012Z,102984.75
2023-04-18T19:43:52.542Z,102987.56
2023-04-18T19:46:19.066Z,102995.84
2023-04-18T19:48:45.762Z,102989.22
2023-04-18T19:51:12.390Z,102988.69
2023-04-18T19:53:39.119Z,102995.09
2023-04-18T19:56:05.674Z,102996.94
2023-04-18T19:58:44.719Z,102996.78
2023-04-18T20:01:12.662Z,103004.16
2023-04-18T20:03:40.497Z,102998.03
2023-04-18T20:06:07.807Z,103000.97
2023-04-18T20:08:39.443Z,102996.88
2023-04-18T20:11:11.078Z,103012.13
2023-04-18T20:13:38.191Z,103010.84
2023-04-18T20:16:05.701Z,103013.91
2023-04-18T20:18:33.878Z,103006.22
2023-04-18T20:21:00.481Z,103012.50
2023-04-18T20:23:27.027Z,103001.69
2023-04-18T20:25:53.540Z,103010.50
2023-04-18T20:28:20.316Z,103026.88
2023-04-18T20:30:47.965Z,103016.63
2023-04-18T20:33:14.673Z,103006.41
2023-04-18T20:35:41.625Z,103018.53
2023-04-18T20:38:09.956Z,103015.16
2023-04-18T20:40:38.721Z,103011.91
2023-04-18T20:43:06.887Z,103011.34
2023-04-18T20:45:37.710Z,103013.31
2023-04-18T20:48:04.809Z,103014.09
2023-04-18T20:50:31.516Z,103020.50
2023-04-18T20:53:00.367Z,103014.88
2023-04-18T20:55:26.839Z,103027.19
2023-04-18T20:57:53.374Z,103032.75
2023-04-18T21:00:20.114Z,103037.09
2023-04-18T21:02:46.765Z,103028.81
2023-04-18T21:05:13.356Z,103026.03
2023-04-18T21:07:39.838Z,103028.22
2023-04-18T21:10:06.966Z,103035.47
2023-04-18T21:12:33.452Z,103029.59
2023-04-18T21:14:59.882Z,103039.25
2023-04-18T21:17:27.009Z,103039.38
2023-04-18T21:19:55.766Z,103031.66
2023-04-18T21:22:22.183Z,103034.56
2023-04-18T21:24:48.625Z,103041.56
2023-04-18T21:27:16.230Z,103042.03
2023-04-18T21:29:42.821Z,103052.31
2023-04-18T21:32:09.370Z,103041.72
2023-04-18T21:34:35.853Z,103041.34
2023-04-18T21:37:02.454Z,103045.22
2023-04-18T21:39:28.906Z,103039.44
2023-04-18T21:41:55.410Z,103044.75
2023-04-18T21:44:21.907Z,103039.69
2023-04-18T21:46:48.396Z,103041.06
2023-04-18T21:49:15.320Z,103042.59
2023-04-18T21:51:41.828Z,103033.22
2023-04-18T21:54:08.467Z,103032.03
2023-04-18T21:56:34.884Z,103050.09
2023-04-18T21:59:01.350Z,103042.16
2023-04-18T22:01:27.932Z,103046.75
2023-04-18T22:03:54.649Z,103045.91
2023-04-18T22:06:23.178Z,103038.47
2023-04-18T22:08:50.101Z,103047.13
2023-04-18T22:11:16.563Z,103042.53
2023-04-18T22:13:45.810Z,103031.22
2023-04-18T22:16:12.302Z,103029.06
2023-04-18T22:18:38.770Z,103037.75
2023-04-18T22:21:06.112Z,103029.16
2023-04-18T22:23:32.626Z,103031.25
2023-04-18T22:25:59.189Z,103028.72
2023-04-18T22:28:27.812Z,103038.34
2023-04-18T22:30:54.381Z,103035.13
2023-04-18T22:33:20.859Z,103041.50
2023-04-18T22:35:48.445Z,103039.09
2023-04-18T22:38:15.169Z,103035.72
2023-04-18T22:40:41.885Z,103044.66
2023-04-18T22:43:08.327Z,103035.41
2023-04-18T22:45:34.992Z,103031.78
2023-04-18T22:48:01.440Z,103045.16
2023-04-18T22:50:27.938Z,103048.91
2023-04-18T22:52:54.399Z,103044.81
2023-04-18T22:55:20.922Z,103048.31
2023-04-18T22:57:47.367Z,103047.59
2023-04-18T23:00:14.536Z,103039.53
2023-04-18T23:02:41.557Z,103046.53
2023-04-18T23:05:10.654Z,103047.34
2023-04-18T23:07:37.134Z,103043.75
2023-04-18T23:10:07.264Z,103054.97
2023-04-18T23:12:33.800Z,103063.91
2023-04-18T23:15:00.304Z,103057.97
2023-04-18T23:17:26.927Z,103058.22
2023-04-18T23:19:53.417Z,103067.75
2023-04-18T23:22:20.612Z,103074.13
2023-04-18T23:24:47.079Z,103074.38
2023-04-18T23:27:13.551Z,103069.56
2023-04-18T23:29:40.097Z,103075.59
2023-04-18T23:32:06.639Z,103062.31
2023-04-18T23:34:33.173Z,103063.78
2023-04-18T23:37:00.496Z,103064.75
2023-04-18T23:39:26.957Z,103070.75
2023-04-18T23:41:53.423Z,103062.69
2023-04-18T23:44:19.963Z,103057.66
2023-04-18T23:46:47.254Z,103064.63
2023-04-18T23:49:14.270Z,103069.94
2023-04-18T23:51:40.803Z,103052.69
2023-04-18T23:54:07.593Z,103055.09
2023-04-18T23:56:34.384Z,103052.69
2023-04-18T23:59:00.882Z,103048.50
